Portada
METAR-TAF:

METAR-TAF

Aeroports :

Salt Lake City International Airport

Salt Lake City, Utah, Estats Units d'Amèrica

latitud: 40-46-41N, longitud: 111-58-10W, altitud: 1288 m

Observació

L'informe es va fer fa 55 minuts, a les 07:54 UTC
Vent 7 kt del Sud-Est
Temperatura 21°C
Humitat 33%
Pressió 1015 hPa
Visibilitat: 16.1 km
Cel clar

METAR: KSLC 240754Z 14007KT 10SM CLR 21/04 A2998 RMK AO2 SLP095 T02110044

Hora: 02:49 (08:49 UTC)

Pronòstic

L'informe es va fer fa 3 hores i 29 minuts, a les 05:20 UTC
Pronòstic vàlid del 24 a les 06 UTC al 25 a les 12 UTC
Vent 5 kt del Sud
Visibilitat: 10 km
Cel clar
A partir de les 24 a les 2000 UTC
Vent 11 kt del Oest/Nord-Oest
Visibilitat: 10 km
Cel clar
A partir de les 25 a les 0400 UTC
Vent 5 kt del Sud/Sud-Est
Visibilitat: 10 km
Cel clar

TAF: KSLC 240520Z 2406/2512 17005KT P6SM SKC FM242000 30011KT P6SM SKC FM250400 15005KT P6SM SKC

Observacions i pronòstics meteorològics de més de 4000 aeroports (METAR i TAF).

Les estacions disponibles són els punts grocs i vermells al mapa.

Posi el ratolí al punt desitjat per veure el nom de l'estació.

Feu clic per veure les observacions i els pronòstics meteorològics.

Per canviar el mapa: feu clic els botons verds amb una creu de color negre per apropar; al botó verd amb un guió per allunyar la imatge; o en les fletxes verdes per a mapes adjacents.


METAR-TAF: